Time;durP1;ratioP1;P1;durP2;ratioP2;P2;SDS_P1;SDS_P2;PMS_P1;PMS_P2;Temp;Humidity;BMP_temperature;BMP_pressure;BME280_temperature;BME280_humidity;BME280_pressure;Samples;Min_cycle;Max_cycle;Signal;HPM_P1;HPM_P2
2022/03/21 00:00:56;;;;;;;35.72;17.40;;;6.00;99.90;;;;;;5058363;28;20098;-76
2022/03/21 00:03:29;;;;;;;32.25;17.85;;;6.00;99.90;;;;;;5063487;28;20040;-77
2022/03/21 00:05:57;;;;;;;32.90;18.15;;;5.90;99.90;;;;;;5032857;28;20035;-76
2022/03/21 00:08:24;;;;;;;32.83;18.48;;;6.00;99.90;;;;;;5051148;28;20374;-76
2022/03/21 00:10:52;;;;;;;38.97;20.23;;;5.90;99.90;;;;;;5016167;28;20122;-76
2022/03/21 00:13:20;;;;;;;33.80;20.35;;;5.90;99.90;;;;;;5026910;28;20036;-76
2022/03/21 00:15:48;;;;;;;31.77;19.13;;;5.90;99.90;;;;;;5026308;28;20127;-77
2022/03/21 00:18:15;;;;;;;32.40;19.30;;;5.90;99.90;;;;;;5017970;28;20049;-76
2022/03/21 00:20:43;;;;;;;28.23;18.17;;;5.90;99.90;;;;;;5056539;28;20036;-76
2022/03/21 00:23:09;;;;;;;31.33;18.27;;;5.80;99.90;;;;;;5049381;28;20044;-78
2022/03/21 00:25:36;;;;;;;35.70;18.63;;;5.80;99.90;;;;;;5071999;28;20198;-76
2022/03/21 00:28:02;;;;;;;31.80;19.20;;;5.80;99.90;;;;;;5051521;28;20112;-77
2022/03/21 00:30:29;;;;;;;34.05;19.38;;;5.80;99.90;;;;;;5032213;28;20045;-77
2022/03/21 00:32:56;;;;;;;36.92;19.95;;;5.80;99.90;;;;;;5037792;28;20048;-76
2022/03/21 00:35:23;;;;;;;31.52;17.48;;;5.70;99.90;;;;;;5035932;28;20041;-76
2022/03/21 00:37:50;;;;;;;31.75;18.40;;;5.70;99.90;;;;;;5032996;28;20043;-77
2022/03/21 00:40:20;;;;;;;31.67;19.00;;;5.70;99.90;;;;;;5035933;28;20047;-77
2022/03/21 00:42:48;;;;;;;33.70;19.52;;;5.70;99.90;;;;;;5039018;28;20490;-77
2022/03/21 00:45:20;;;;;;;37.95;20.30;;;5.70;99.90;;;;;;5068466;28;20120;-77
2022/03/21 00:47:49;;;;;;;37.92;19.25;;;5.70;99.90;;;;;;5017956;28;20266;-78
2022/03/21 00:50:19;;;;;;;31.33;19.13;;;5.70;99.90;;;;;;5051851;28;20039;-77
2022/03/21 00:52:47;;;;;;;37.67;18.52;;;5.70;99.90;;;;;;5025638;28;20128;-77
2022/03/21 00:55:15;;;;;;;33.28;19.75;;;5.70;99.90;;;;;;5039796;28;20074;-77
2022/03/21 00:57:45;;;;;;;30.88;19.05;;;5.70;99.90;;;;;;5035302;28;20429;-77
2022/03/21 01:00:18;;;;;;;40.05;20.67;;;5.70;99.90;;;;;;5071178;28;20049;-77
2022/03/21 01:02:45;;;;;;;31.13;18.35;;;5.70;99.90;;;;;;5045211;28;20486;-77
2022/03/21 01:05:12;;;;;;;30.75;18.58;;;5.60;99.90;;;;;;5055322;28;20056;-77
2022/03/21 01:07:39;;;;;;;31.35;18.75;;;5.60;99.90;;;;;;5063583;28;20397;-77
2022/03/21 01:10:08;;;;;;;32.88;19.20;;;5.50;99.90;;;;;;5039466;28;20481;-77
2022/03/21 01:12:34;;;;;;;35.60;19.90;;;5.50;99.90;;;;;;5021078;28;20083;-77
2022/03/21 01:15:01;;;;;;;33.70;19.23;;;5.50;99.90;;;;;;5045085;28;20043;-77
2022/03/21 01:17:27;;;;;;;31.48;19.63;;;5.50;99.90;;;;;;5033835;28;20049;-77
2022/03/21 01:19:54;;;;;;;32.58;19.38;;;5.50;99.90;;;;;;5037441;28;20045;-77
2022/03/21 01:22:20;;;;;;;37.55;20.63;;;5.50;99.90;;;;;;5067925;28;20453;-77
2022/03/21 01:24:46;;;;;;;31.83;18.83;;;5.50;99.90;;;;;;5033944;28;20490;-77
2022/03/21 01:27:12;;;;;;;33.33;19.42;;;5.60;99.90;;;;;;5026837;28;20119;-77
2022/03/21 01:29:39;;;;;;;34.95;20.13;;;5.60;99.90;;;;;;5036545;28;20041;-77
2022/03/21 01:32:05;;;;;;;38.40;22.00;;;5.60;99.90;;;;;;5042248;28;20044;-77
2022/03/21 01:34:31;;;;;;;33.53;20.10;;;5.60;99.90;;;;;;5021410;28;20045;-76
2022/03/21 01:36:58;;;;;;;37.13;19.40;;;5.60;99.90;;;;;;5039901;28;20102;-77
2022/03/21 01:39:24;;;;;;;35.78;19.02;;;5.50;99.90;;;;;;5038553;28;20045;-77
2022/03/21 01:41:50;;;;;;;35.88;19.10;;;5.60;99.90;;;;;;5037358;28;20546;-77
2022/03/21 01:44:17;;;;;;;31.88;17.85;;;5.60;99.90;;;;;;5022255;28;20040;-77
2022/03/21 01:46:44;;;;;;;29.63;16.75;;;5.60;99.90;;;;;;5025082;28;20040;-77
2022/03/21 01:49:11;;;;;;;35.85;18.60;;;5.60;99.90;;;;;;5017913;28;20037;-77
2022/03/21 01:51:38;;;;;;;32.65;18.48;;;5.60;99.90;;;;;;5034500;28;20037;-77
2022/03/21 01:56:51;;;;;;;38.13;19.80;;;5.60;99.90;;;;;;5039943;28;20044;-77
2022/03/21 01:59:19;;;;;;;34.15;19.63;;;5.60;99.90;;;;;;5025492;28;20094;-76
2022/03/21 02:01:46;;;;;;;32.90;18.58;;;5.50;99.90;;;;;;5031433;28;20521;-77
2022/03/21 02:04:12;;;;;;;32.55;17.40;;;5.50;99.90;;;;;;5052542;28;20041;-77
2022/03/21 02:06:42;;;;;;;30.83;16.40;;;5.50;99.90;;;;;;5028572;28;20028;-76
2022/03/21 02:09:09;;;;;;;28.40;16.77;;;5.50;99.90;;;;;;5045861;28;20068;-76
2022/03/21 02:11:36;;;;;;;28.05;17.05;;;5.50;99.90;;;;;;5051050;28;20091;-77
2022/03/21 02:14:05;;;;;;;32.03;16.60;;;5.50;99.90;;;;;;5068235;28;20075;-77
2022/03/21 02:16:32;;;;;;;31.45;17.00;;;5.50;99.90;;;;;;5044762;28;20036;-76
2022/03/21 02:19:20;;;;;;;29.98;16.52;;;5.50;99.90;;;;;;5074073;28;20033;-77
2022/03/21 02:21:58;;;;;;;29.45;16.05;;;5.50;99.90;;;;;;5053107;28;20105;-74
2022/03/21 02:24:42;;;;;;;32.40;16.55;;;5.40;99.90;;;;;;5049500;28;20052;-74
2022/03/21 02:27:10;;;;;;;33.95;16.67;;;5.40;99.90;;;;;;5048503;28;20065;-74
2022/03/21 02:29:38;;;;;;;30.67;17.35;;;5.40;99.90;;;;;;5049095;28;20033;-74
2022/03/21 02:32:06;;;;;;;31.02;16.60;;;5.40;99.90;;;;;;5049271;28;20033;-74
2022/03/21 02:34:36;;;;;;;26.83;16.83;;;5.40;99.90;;;;;;5050253;28;20060;-74
2022/03/21 02:37:03;;;;;;;29.08;15.98;;;5.40;99.90;;;;;;5052404;28;20044;-74
2022/03/21 02:39:29;;;;;;;31.92;16.80;;;5.40;99.90;;;;;;5054439;28;20044;-74
2022/03/21 02:41:56;;;;;;;32.67;17.15;;;5.30;99.90;;;;;;5048073;28;20129;-74
2022/03/21 02:44:22;;;;;;;29.38;16.60;;;5.40;99.90;;;;;;5049308;28;20025;-74
2022/03/21 02:46:48;;;;;;;33.85;17.50;;;5.40;99.90;;;;;;5031968;28;20045;-74
2022/03/21 02:49:14;;;;;;;31.80;16.85;;;5.40;99.90;;;;;;5051337;28;20040;-74
2022/03/21 02:51:42;;;;;;;31.50;17.48;;;5.40;99.90;;;;;;5050252;28;20090;-74
2022/03/21 02:54:08;;;;;;;35.00;17.65;;;5.40;99.90;;;;;;5051340;28;20044;-74
2022/03/21 02:56:34;;;;;;;32.45;18.65;;;5.30;99.90;;;;;;5048971;28;20037;-74
2022/03/21 02:59:00;;;;;;;32.00;17.55;;;5.30;99.90;;;;;;5051427;28;20087;-74
2022/03/21 03:01:26;;;;;;;29.35;17.02;;;5.20;99.90;;;;;;5048631;28;20398;-74
2022/03/21 03:03:53;;;;;;;29.20;17.23;;;5.20;99.90;;;;;;5049925;28;20124;-74
2022/03/21 03:06:19;;;;;;;32.17;16.63;;;5.10;99.90;;;;;;5048995;28;20033;-74
2022/03/21 03:08:45;;;;;;;28.52;17.13;;;5.10;99.90;;;;;;5052644;28;20390;-74
2022/03/21 03:11:12;;;;;;;29.88;16.77;;;5.00;99.90;;;;;;5050099;28;20041;-74
2022/03/21 03:13:38;;;;;;;32.10;18.08;;;5.00;99.90;;;;;;5051912;28;20052;-74
2022/03/21 03:16:04;;;;;;;37.10;18.35;;;4.90;99.90;;;;;;5047357;28;20048;-74
2022/03/21 03:18:30;;;;;;;28.38;18.17;;;4.90;99.90;;;;;;5049501;28;20047;-74
2022/03/21 03:20:57;;;;;;;31.05;16.40;;;4.80;99.90;;;;;;5049167;28;20037;-74
2022/03/21 03:23:30;;;;;;;30.92;17.50;;;4.80;99.90;;;;;;5048504;28;20056;-74
2022/03/21 03:26:04;;;;;;;28.60;16.13;;;4.60;99.90;;;;;;5047684;28;20103;-74
2022/03/21 03:28:31;;;;;;;32.22;17.27;;;4.60;99.90;;;;;;5051072;28;20032;-74
2022/03/21 03:30:58;;;;;;;31.63;16.85;;;4.50;99.90;;;;;;5030999;28;20040;-75
2022/03/21 03:33:25;;;;;;;29.45;16.25;;;4.40;99.90;;;;;;5050423;28;20047;-74
2022/03/21 03:35:51;;;;;;;26.42;15.90;;;4.40;99.90;;;;;;5049133;28;20037;-74
2022/03/21 03:38:17;;;;;;;31.15;16.83;;;4.40;99.90;;;;;;5046322;28;20676;-74
2022/03/21 03:40:44;;;;;;;27.30;16.95;;;4.30;99.90;;;;;;5050434;28;20083;-74
2022/03/21 03:43:16;;;;;;;30.30;16.65;;;4.20;99.90;;;;;;5048573;28;20049;-74
2022/03/21 03:45:42;;;;;;;33.00;16.98;;;4.10;99.90;;;;;;5050189;28;20502;-74
2022/03/21 03:48:09;;;;;;;33.13;16.52;;;4.10;99.90;;;;;;5049242;28;20029;-74
2022/03/21 03:50:35;;;;;;;27.63;16.05;;;4.00;99.90;;;;;;5048596;28;20510;-75
2022/03/21 03:53:00;;;;;;;34.75;16.92;;;4.00;99.90;;;;;;5051625;28;20079;-74
2022/03/21 03:55:26;;;;;;;31.00;16.75;;;3.90;99.90;;;;;;5045746;28;20482;-74
2022/03/21 03:57:53;;;;;;;32.88;17.50;;;3.80;99.90;;;;;;5049417;28;20448;-74
2022/03/21 04:00:19;;;;;;;29.52;16.25;;;3.80;99.90;;;;;;5048217;28;20102;-74
2022/03/21 04:05:30;;;;;;;31.52;16.92;;;3.70;99.90;;;;;;5048864;28;20427;-74
2022/03/21 04:07:56;;;;;;;31.58;17.20;;;3.90;99.90;;;;;;5051355;28;20409;-74
2022/03/21 04:10:22;;;;;;;33.38;16.23;;;3.60;99.90;;;;;;5053658;28;20033;-73
2022/03/21 04:12:49;;;;;;;31.98;17.08;;;3.60;99.90;;;;;;5051216;28;20402;-74
2022/03/21 04:15:16;;;;;;;28.60;15.95;;;3.50;99.90;;;;;;5053247;28;20079;-74
2022/03/21 04:17:42;;;;;;;29.55;16.70;;;3.40;99.90;;;;;;5052424;28;20486;-74
2022/03/21 04:20:08;;;;;;;31.98;16.27;;;3.40;99.90;;;;;;5053443;28;20041;-74
2022/03/21 04:22:35;;;;;;;32.13;18.02;;;3.30;99.90;;;;;;5052468;28;20041;-74
2022/03/21 04:25:03;;;;;;;29.77;15.95;;;3.40;99.90;;;;;;5055030;28;20131;-74
2022/03/21 04:27:28;;;;;;;33.42;15.85;;;3.30;99.90;;;;;;5049804;28;20043;-73
2022/03/21 04:29:54;;;;;;;29.05;16.15;;;3.30;99.90;;;;;;5054401;28;20037;-74
2022/03/21 04:32:20;;;;;;;27.33;15.68;;;3.20;99.90;;;;;;5051943;28;20049;-74
2022/03/21 04:34:45;;;;;;;36.38;17.38;;;3.20;99.90;;;;;;5050853;28;20055;-74
2022/03/21 04:37:11;;;;;;;29.15;16.38;;;3.20;99.90;;;;;;5049646;28;20037;-74
2022/03/21 04:39:37;;;;;;;28.48;16.13;;;3.10;99.90;;;;;;5052756;28;20049;-74
2022/03/21 04:42:03;;;;;;;30.13;17.25;;;3.10;99.90;;;;;;5031983;28;20041;-74
2022/03/21 04:44:29;;;;;;;33.35;17.42;;;3.10;99.90;;;;;;5049771;28;20033;-74
2022/03/21 04:46:54;;;;;;;32.38;18.10;;;3.10;99.90;;;;;;5050183;28;20075;-74
2022/03/21 04:49:20;;;;;;;29.70;16.60;;;3.10;99.90;;;;;;5031921;28;20505;-74
2022/03/21 04:51:46;;;;;;;35.63;17.90;;;3.00;99.90;;;;;;5050223;28;20059;-74
2022/03/21 04:54:11;;;;;;;29.83;16.83;;;3.00;99.90;;;;;;5049808;28;20056;-74
2022/03/21 04:56:37;;;;;;;29.60;16.42;;;3.10;99.90;;;;;;5051685;28;20086;-74
2022/03/21 04:59:03;;;;;;;28.13;14.82;;;2.70;99.90;;;;;;5049965;28;20056;-74
2022/03/21 05:01:28;;;;;;;26.60;14.50;;;2.60;99.90;;;;;;5049756;28;20102;-74
2022/03/21 05:03:55;;;;;;;26.45;15.48;;;2.50;99.90;;;;;;5048836;28;20049;-73
2022/03/21 05:06:20;;;;;;;23.35;14.00;;;2.50;99.90;;;;;;5053993;28;20041;-74
2022/03/21 05:08:49;;;;;;;27.50;15.65;;;2.40;99.90;;;;;;5052402;28;20032;-74
2022/03/21 05:11:15;;;;;;;28.30;16.42;;;2.40;99.90;;;;;;5052606;28;20044;-74
2022/03/21 05:13:40;;;;;;;28.77;17.08;;;2.40;99.90;;;;;;5051481;28;20037;-74
2022/03/21 05:16:06;;;;;;;35.17;18.25;;;2.30;99.90;;;;;;5049119;28;20045;-74
2022/03/21 05:18:35;;;;;;;30.23;16.80;;;2.30;99.90;;;;;;5047536;28;20509;-74
2022/03/21 05:21:05;;;;;;;30.23;15.77;;;2.30;99.90;;;;;;5047377;28;20371;-74
2022/03/21 05:31:45;;;;;;;31.10;16.15;;;2.20;99.90;;;;;;5041018;28;20033;-74
2022/03/21 05:36:55;;;;;;;29.42;14.98;;;2.20;99.90;;;;;;5053666;28;20068;-73
2022/03/21 05:39:24;;;;;;;32.55;17.10;;;2.20;99.90;;;;;;5035033;28;20133;-74
2022/03/21 05:41:53;;;;;;;30.20;17.65;;;2.10;99.90;;;;;;5014784;28;20069;-73
2022/03/21 05:44:19;;;;;;;32.65;16.65;;;2.20;99.90;;;;;;5032471;28;20060;-74
2022/03/21 05:46:46;;;;;;;33.53;15.63;;;2.10;99.90;;;;;;5050622;28;20041;-73
2022/03/21 05:49:12;;;;;;;30.50;17.02;;;2.10;99.90;;;;;;5050811;28;20504;-74
2022/03/21 05:51:40;;;;;;;34.22;17.27;;;2.10;99.90;;;;;;5051721;28;20033;-74
2022/03/21 05:54:09;;;;;;;38.58;18.58;;;2.10;99.90;;;;;;5050863;28;20037;-76
2022/03/21 05:56:36;;;;;;;38.17;18.63;;;2.10;99.90;;;;;;5051885;28;20453;-76
2022/03/21 06:01:48;;;;;;;31.40;18.77;;;2.10;99.90;;;;;;5051671;28;20040;-75
2022/03/21 06:04:15;;;;;;;37.35;19.02;;;2.10;99.90;;;;;;5048941;28;20041;-75
2022/03/21 06:06:41;;;;;;;37.50;19.02;;;2.10;99.90;;;;;;5066075;28;20044;-76
2022/03/21 06:09:08;;;;;;;35.72;17.95;;;2.10;99.90;;;;;;5050040;28;20123;-75
2022/03/21 06:11:36;;;;;;;34.95;19.10;;;2.10;99.90;;;;;;5053902;28;20076;-75
2022/03/21 06:14:06;;;;;;;34.90;18.88;;;2.20;99.90;;;;;;5050041;28;20045;-75
2022/03/21 06:16:35;;;;;;;36.90;18.80;;;2.10;99.90;;;;;;5049842;28;20501;-75
2022/03/21 06:19:01;;;;;;;47.03;21.13;;;2.20;99.90;;;;;;5050360;28;20089;-75
2022/03/21 06:21:30;;;;;;;44.28;21.00;;;2.20;99.90;;;;;;5050662;28;20040;-75
2022/03/21 06:23:59;;;;;;;42.67;20.15;;;2.20;99.90;;;;;;5046907;28;20124;-75
2022/03/21 06:26:25;;;;;;;39.28;18.75;;;2.20;99.90;;;;;;5050530;28;20092;-75
2022/03/21 06:28:51;;;;;;;35.20;18.05;;;2.20;99.90;;;;;;5049252;28;20036;-76
2022/03/21 06:31:17;;;;;;;38.85;18.88;;;2.20;99.90;;;;;;5053630;28;20115;-77
2022/03/21 06:33:43;;;;;;;35.85;19.48;;;2.30;99.90;;;;;;5052064;28;20509;-75
2022/03/21 06:36:09;;;;;;;33.70;17.73;;;2.30;99.90;;;;;;5050755;28;20037;-75
2022/03/21 06:38:35;;;;;;;39.17;19.67;;;2.30;99.90;;;;;;5050179;28;20498;-76
2022/03/21 06:41:02;;;;;;;48.97;21.67;;;2.40;99.90;;;;;;5049355;28;20044;-75
2022/03/21 06:43:27;;;;;;;38.72;19.77;;;2.40;99.90;;;;;;5045797;28;20041;-76
2022/03/21 06:45:55;;;;;;;34.25;17.90;;;2.40;99.90;;;;;;5048174;28;20500;-75
2022/03/21 06:48:23;;;;;;;42.35;21.13;;;2.70;99.90;;;;;;5048016;28;20478;-75
2022/03/21 06:50:50;;;;;;;36.88;20.17;;;2.50;99.90;;;;;;5050910;28;20069;-75
2022/03/21 06:53:17;;;;;;;36.20;19.60;;;2.60;99.90;;;;;;5051709;28;20040;-75
2022/03/21 06:55:44;;;;;;;49.58;21.65;;;2.60;99.90;;;;;;5051854;28;20083;-75
2022/03/21 06:58:13;;;;;;;33.05;17.77;;;2.70;99.90;;;;;;5051542;28;20052;-75
2022/03/21 07:00:40;;;;;;;41.45;21.23;;;2.80;99.90;;;;;;5052780;28;20402;-75
2022/03/21 07:03:08;;;;;;;41.28;22.05;;;2.80;99.90;;;;;;5048437;28;20099;-76
2022/03/21 07:05:37;;;;;;;38.30;21.00;;;2.90;99.90;;;;;;5049296;28;20681;-75
2022/03/21 07:08:06;;;;;;;43.33;22.15;;;3.00;99.90;;;;;;5048383;28;20500;-75
2022/03/21 07:10:33;;;;;;;42.55;21.25;;;3.10;99.90;;;;;;5050693;28;20044;-75
2022/03/21 07:13:05;;;;;;;46.08;23.15;;;3.20;99.90;;;;;;5049215;28;20119;-76
2022/03/21 07:15:31;;;;;;;44.00;21.70;;;3.30;99.90;;;;;;5048951;28;20064;-75
2022/03/21 07:17:58;;;;;;;47.63;23.38;;;3.40;99.90;;;;;;5051394;28;20064;-76
2022/03/21 07:20:28;;;;;;;49.97;23.27;;;3.40;99.90;;;;;;5049545;28;20029;-76
2022/03/21 07:22:58;;;;;;;50.60;24.50;;;3.50;99.90;;;;;;5049994;28;20072;-76
2022/03/21 07:25:25;;;;;;;57.63;26.90;;;3.60;99.90;;;;;;5049183;28;20069;-75
2022/03/21 07:27:51;;;;;;;54.83;25.08;;;3.80;99.90;;;;;;5030106;28;20082;-76
2022/03/21 07:30:18;;;;;;;51.53;25.20;;;3.90;99.90;;;;;;5051718;28;20116;-76
2022/03/21 07:32:44;;;;;;;52.75;24.98;;;4.10;99.90;;;;;;5047719;28;20099;-75
2022/03/21 07:35:12;;;;;;;46.88;23.77;;;4.20;99.90;;;;;;5050032;28;20135;-76
2022/03/21 07:37:43;;;;;;;48.60;24.65;;;4.30;99.90;;;;;;5046350;28;20041;-76
2022/03/21 07:40:11;;;;;;;47.35;25.33;;;4.50;99.90;;;;;;5051794;28;20410;-76
2022/03/21 07:42:41;;;;;;;46.15;25.40;;;4.90;99.90;;;;;;5050728;28;20107;-76
2022/03/21 07:48:04;;;;;;;47.10;24.15;;;5.60;99.90;;;;;;5011513;28;20088;-76
2022/03/21 07:50:31;;;;;;;57.20;28.45;;;6.30;99.90;;;;;;5052358;28;20406;-76
2022/03/21 07:52:59;;;;;;;34.85;22.45;;;7.20;99.90;;;;;;5046522;28;20037;-76
2022/03/21 07:55:25;;;;;;;34.05;20.88;;;8.10;99.90;;;;;;5050064;28;20033;-76
2022/03/21 07:57:51;;;;;;;32.88;19.85;;;9.00;99.90;;;;;;5047161;28;20039;-76
2022/03/21 08:00:17;;;;;;;30.80;18.65;;;9.50;99.90;;;;;;5053830;28;20032;-76
2022/03/21 08:02:44;;;;;;;27.35;17.83;;;10.00;99.90;;;;;;5047555;28;20120;-76
2022/03/21 08:05:11;;;;;;;25.02;16.13;;;10.40;99.90;;;;;;5048975;28;20065;-77
2022/03/21 08:07:36;;;;;;;26.40;15.88;;;10.60;99.90;;;;;;5049265;28;20636;-76
2022/03/21 08:10:03;;;;;;;20.73;13.98;;;10.90;99.90;;;;;;5047501;28;20044;-76
2022/03/21 08:12:30;;;;;;;19.00;13.88;;;11.00;99.90;;;;;;5048576;28;20041;-76
2022/03/21 08:14:56;;;;;;;19.63;13.85;;;11.10;99.90;;;;;;5051892;28;20029;-76
2022/03/21 08:17:22;;;;;;;26.92;14.50;;;11.50;99.90;;;;;;5049977;28;20037;-76
2022/03/21 08:19:48;;;;;;;23.60;15.20;;;11.90;99.90;;;;;;5048130;28;20471;-76
2022/03/21 08:22:15;;;;;;;24.45;16.45;;;12.30;99.90;;;;;;5050261;28;20077;-76
2022/03/21 08:24:41;;;;;;;24.35;16.98;;;12.40;99.90;;;;;;5024117;28;20502;-77
2022/03/21 08:27:07;;;;;;;27.83;18.02;;;12.80;99.90;;;;;;5037836;28;20054;-76
2022/03/21 08:29:33;;;;;;;24.58;17.42;;;13.10;99.90;;;;;;5039998;28;20041;-76
2022/03/21 08:31:59;;;;;;;30.85;18.58;;;13.20;99.90;;;;;;5022596;28;20582;-76
2022/03/21 08:34:25;;;;;;;26.08;18.90;;;13.30;99.90;;;;;;5021570;28;20077;-76
2022/03/21 08:36:51;;;;;;;26.73;17.85;;;13.70;99.90;;;;;;5039848;28;20121;-76
2022/03/21 08:39:16;;;;;;;25.85;17.50;;;13.50;99.90;;;;;;5038130;28;20347;-76
2022/03/21 08:41:42;;;;;;;26.13;17.52;;;13.80;99.90;;;;;;5034693;28;20086;-76
2022/03/21 08:44:08;;;;;;;26.95;16.60;;;13.80;99.90;;;;;;5035005;28;20037;-77
2022/03/21 08:46:34;;;;;;;21.77;16.55;;;13.70;99.90;;;;;;5031492;28;20041;-77
2022/03/21 08:51:46;;;;;;;22.38;15.52;;;13.40;99.90;;;;;;5035499;28;20482;-76
2022/03/21 08:54:12;;;;;;;20.15;14.65;;;13.70;99.90;;;;;;5038177;28;20048;-76
2022/03/21 08:56:38;;;;;;;19.05;13.75;;;13.70;99.90;;;;;;5044182;28;20063;-77
2022/03/21 08:59:04;;;;;;;24.45;14.70;;;13.90;99.90;;;;;;5043159;28;20041;-76
2022/03/21 09:01:31;;;;;;;22.38;14.60;;;14.10;99.90;;;;;;5043061;28;20044;-76
2022/03/21 09:04:02;;;;;;;20.98;14.40;;;14.40;99.90;;;;;;5045254;28;20053;-74
2022/03/21 09:06:28;;;;;;;22.13;14.85;;;14.90;99.90;;;;;;5043092;28;20045;-74
2022/03/21 09:08:54;;;;;;;22.77;14.90;;;15.10;99.90;;;;;;5041512;28;20182;-73
2022/03/21 09:11:20;;;;;;;18.85;14.65;;;15.40;99.90;;;;;;5044620;28;20117;-74
2022/03/21 09:13:47;;;;;;;21.10;15.02;;;15.40;99.90;;;;;;5044164;28;20041;-74
2022/03/21 09:16:14;;;;;;;20.25;14.23;;;15.70;99.90;;;;;;5043524;28;20048;-74
2022/03/21 09:18:43;;;;;;;19.50;14.20;;;15.90;99.90;;;;;;5044170;28;20099;-74
2022/03/21 09:21:10;;;;;;;21.63;13.25;;;16.10;99.90;;;;;;5044525;28;20055;-75
2022/03/21 09:23:37;;;;;;;20.10;13.77;;;16.20;99.60;;;;;;5043725;28;20085;-74
2022/03/21 09:26:04;;;;;;;20.67;12.73;;;16.30;99.40;;;;;;5042676;28;20041;-75
2022/03/21 09:28:33;;;;;;;19.08;13.52;;;16.00;96.00;;;;;;5043083;28;20029;-74
2022/03/21 09:30:59;;;;;;;20.65;14.20;;;15.90;98.10;;;;;;5044587;28;20498;-74
2022/03/21 09:33:27;;;;;;;21.27;13.98;;;16.20;98.10;;;;;;5045107;28;20071;-74
2022/03/21 09:35:52;;;;;;;21.05;14.50;;;16.20;96.80;;;;;;5042779;28;20379;-76
2022/03/21 09:38:18;;;;;;;20.30;14.68;;;16.30;97.20;;;;;;5041819;28;20048;-74
2022/03/21 09:40:46;;;;;;;20.85;14.70;;;16.70;97.40;;;;;;5025031;28;20474;-74
2022/03/21 09:43:14;;;;;;;19.80;14.30;;;17.20;97.00;;;;;;5043658;28;20151;-75
2022/03/21 09:45:41;;;;;;;23.63;15.05;;;17.20;96.20;;;;;;5044935;28;20514;-75
2022/03/21 09:48:08;;;;;;;19.75;15.13;;;17.30;95.30;;;;;;5044324;28;20033;-74
2022/03/21 09:50:36;;;;;;;22.55;15.50;;;17.60;95.90;;;;;;5075544;28;20118;-74
2022/03/21 09:53:04;;;;;;;25.00;14.30;;;17.70;95.50;;;;;;5044374;28;21390;-73
2022/03/21 09:55:32;;;;;;;21.50;15.00;;;17.80;94.20;;;;;;5041501;28;20037;-74
2022/03/21 09:57:58;;;;;;;24.00;15.65;;;17.80;93.00;;;;;;5043065;28;20505;-74
2022/03/21 10:00:25;;;;;;;24.13;15.30;;;18.30;92.50;;;;;;5043538;28;20461;-74
2022/03/21 10:02:53;;;;;;;24.17;15.85;;;18.30;91.70;;;;;;5042211;28;20037;-74
2022/03/21 10:05:38;;;;;;;22.48;16.15;;;18.40;91.60;;;;;;5075334;28;20149;-74
2022/03/21 10:08:11;;;;;;;26.50;15.75;;;18.70;89.80;;;;;;5042392;28;20068;-76
2022/03/21 10:10:37;;;;;;;25.25;15.10;;;18.50;86.50;;;;;;5043715;28;20052;-75
2022/03/21 10:13:03;;;;;;;22.85;14.77;;;18.60;90.10;;;;;;5043982;28;20053;-75
2022/03/21 10:15:29;;;;;;;23.17;16.05;;;18.70;90.40;;;;;;5043181;28;20029;-75
2022/03/21 10:18:06;;;;;;;20.17;15.55;;;19.10;90.50;;;;;;5041644;28;20080;-75
2022/03/21 10:20:33;;;;;;;21.60;15.68;;;18.70;87.40;;;;;;5025399;28;20093;-76
2022/03/21 10:23:18;;;;;;;25.40;16.48;;;19.20;89.80;;;;;;5042520;28;20045;-76
2022/03/21 10:25:44;;;;;;;20.45;15.13;;;19.50;85.40;;;;;;5041980;28;20053;-75
2022/03/21 10:28:30;;;;;;;22.60;15.55;;;19.70;87.60;;;;;;5042846;28;20033;-77
2022/03/21 10:30:56;;;;;;;24.58;16.60;;;19.70;86.90;;;;;;5042899;28;20033;-76
2022/03/21 10:33:25;;;;;;;25.30;17.15;;;19.70;84.80;;;;;;5040686;28;20046;-77
2022/03/21 10:35:53;;;;;;;22.48;17.27;;;19.90;84.90;;;;;;5041022;28;20128;-78
2022/03/21 10:38:34;;;;;;;24.05;16.55;;;19.70;85.70;;;;;;5041340;28;20032;-79
2022/03/21 10:41:08;;;;;;;24.77;16.50;;;19.40;86.80;;;;;;5040876;28;20033;-77
2022/03/21 10:43:35;;;;;;;24.98;17.40;;;19.40;84.00;;;;;;5023803;28;20094;-77
2022/03/21 10:46:02;;;;;;;22.95;16.92;;;19.30;85.00;;;;;;5042540;28;20045;-78
2022/03/21 10:48:32;;;;;;;23.02;17.48;;;19.40;84.40;;;;;;5039653;28;20041;-78
2022/03/21 10:51:00;;;;;;;23.17;17.17;;;19.30;82.60;;;;;;5041385;28;20051;-77
2022/03/21 10:53:36;;;;;;;24.70;17.23;;;18.90;86.00;;;;;;5040504;28;20041;-78
2022/03/21 10:56:10;;;;;;;23.90;17.52;;;19.00;86.00;;;;;;5068223;28;20048;-77
2022/03/21 10:58:40;;;;;;;27.00;17.73;;;19.10;86.50;;;;;;5042314;28;20498;-77
2022/03/21 11:01:17;;;;;;;29.98;16.80;;;19.20;82.10;;;;;;5042362;28;20113;-77
2022/03/21 11:03:45;;;;;;;26.42;17.27;;;18.90;83.60;;;;;;5042928;28;20376;-77
2022/03/21 11:06:13;;;;;;;26.63;17.75;;;18.60;80.80;;;;;;5042768;28;20033;-76
2022/03/21 11:08:39;;;;;;;26.83;17.40;;;18.10;81.40;;;;;;5041956;28;20951;-78
2022/03/21 11:11:06;;;;;;;28.90;18.52;;;18.00;81.90;;;;;;5056717;28;20044;-77
2022/03/21 11:13:33;;;;;;;24.48;17.00;;;17.90;82.10;;;;;;5041072;28;20048;-80
2022/03/21 11:15:59;;;;;;;29.23;17.55;;;18.10;80.20;;;;;;5023236;28;20028;-80
2022/03/21 11:18:28;;;;;;;26.83;17.50;;;18.60;81.20;;;;;;5039727;28;20608;-80
2022/03/21 11:20:56;;;;;;;26.13;17.60;;;19.20;80.30;;;;;;5042120;28;20063;-80
2022/03/21 11:23:25;;;;;;;24.27;17.33;;;19.00;78.10;;;;;;5041039;28;21001;-80
2022/03/21 11:26:11;;;;;;;30.15;17.95;;;18.90;79.00;;;;;;5057942;28;20071;-80
2022/03/21 11:29:15;;;;;;;26.88;17.95;;;18.20;78.60;;;;;;5041401;28;20037;-79
2022/03/21 11:32:06;;;;;;;25.52;16.80;;;17.50;85.20;;;;;;5041745;28;20107;-79
2022/03/21 11:34:59;;;;;;;28.92;17.00;;;16.80;83.70;;;;;;5042777;28;20510;-79
2022/03/21 11:37:27;;;;;;;28.02;17.45;;;16.90;82.70;;;;;;5041022;28;20090;-81
2022/03/21 11:40:32;;;;;;;28.27;18.23;;;16.50;81.70;;;;;;5022646;28;20033;-82
2022/03/21 11:43:21;;;;;;;31.25;18.13;;;16.30;88.10;;;;;;5039426;28;20103;-81
2022/03/21 11:45:54;;;;;;;27.90;18.10;;;15.70;85.40;;;;;;5032655;28;20080;-82
2022/03/21 11:48:23;;;;;;;30.77;18.92;;;15.60;83.80;;;;;;5039198;28;20176;-81
2022/03/21 11:51:10;;;;;;;28.05;17.85;;;15.90;85.30;;;;;;5040948;28;20544;-82
2022/03/21 11:53:44;;;;;;;25.75;18.70;;;16.10;86.00;;;;;;5038089;28;20503;-82
2022/03/21 11:56:15;;;;;;;29.60;18.52;;;16.40;86.50;;;;;;5040773;28;20090;-81
2022/03/21 11:58:41;;;;;;;30.15;18.50;;;16.60;86.40;;;;;;5040397;28;20047;-82
2022/03/21 12:01:09;;;;;;;24.92;16.65;;;16.50;83.50;;;;;;5038426;28;20049;-82
2022/03/21 12:03:37;;;;;;;26.55;17.88;;;16.50;85.10;;;;;;5037534;28;20045;-80
2022/03/21 12:06:23;;;;;;;28.40;18.63;;;16.40;82.40;;;;;;5038654;28;20219;-77
2022/03/21 12:08:57;;;;;;;28.40;17.67;;;16.60;89.10;;;;;;5042535;28;20033;-80
2022/03/21 12:11:37;;;;;;;26.58;18.13;;;16.80;85.00;;;;;;5041630;28;20041;-81
2022/03/21 12:14:26;;;;;;;24.13;15.57;;;17.10;83.50;;;;;;5037058;28;20414;-80
2022/03/21 12:17:01;;;;;;;24.58;16.83;;;16.90;86.40;;;;;;5039752;28;20035;-80
2022/03/21 12:19:47;;;;;;;30.58;17.00;;;16.40;84.70;;;;;;5039849;28;20110;-78
2022/03/21 12:22:28;;;;;;;24.77;16.42;;;16.70;90.20;;;;;;5022883;28;20041;-78
2022/03/21 12:25:14;;;;;;;25.20;17.23;;;17.00;87.30;;;;;;5022064;28;20064;-79
2022/03/21 12:27:52;;;;;;;29.33;17.95;;;16.80;86.80;;;;;;5040870;28;20072;-79
2022/03/21 12:30:30;;;;;;;25.35;16.55;;;16.70;83.60;;;;;;5044758;28;20371;-80
2022/03/21 12:33:14;;;;;;;27.42;17.20;;;16.80;84.70;;;;;;5045034;28;20052;-80
2022/03/21 12:35:42;;;;;;;26.63;16.23;;;16.90;81.90;;;;;;5043981;28;20139;-79
2022/03/21 12:38:20;;;;;;;28.80;17.20;;;16.80;82.20;;;;;;5044330;28;20402;-78
2022/03/21 12:40:50;;;;;;;30.73;17.75;;;16.80;84.20;;;;;;5043668;28;20087;-79
2022/03/21 12:43:41;;;;;;;27.95;17.33;;;16.90;83.70;;;;;;5044589;28;20087;-79
2022/03/21 12:46:07;;;;;;;27.38;18.65;;;17.10;83.20;;;;;;5043733;28;21027;-79
2022/03/21 12:48:38;;;;;;;24.08;17.42;;;17.30;83.70;;;;;;5044492;28;20517;-79
2022/03/21 12:51:05;;;;;;;27.85;17.92;;;17.70;83.80;;;;;;5045390;28;20537;-80
2022/03/21 12:53:48;;;;;;;29.10;17.52;;;17.50;80.30;;;;;;5043693;28;20043;-79
2022/03/21 12:56:19;;;;;;;27.27;17.48;;;17.60;84.70;;;;;;5042707;28;20048;-77
2022/03/21 12:58:46;;;;;;;24.70;16.55;;;17.50;80.80;;;;;;5025499;28;20076;-81
2022/03/21 13:01:13;;;;;;;29.33;18.65;;;17.30;82.00;;;;;;5042782;28;20549;-80
2022/03/21 13:03:39;;;;;;;29.10;17.67;;;17.20;81.00;;;;;;5042727;28;20080;-82
2022/03/21 13:11:39;;;;;;;27.42;18.08;;;17.70;81.60;;;;;;5058664;28;20507;-81